Main page
METAR-TAF:

METAR-TAF

Airports :

Bucholz Army Airfield

Kwajalein, Marshall Islands

latitude: 08-43N, longitude: 167-44E, elevation: 3 m

Current weather observation

The report was made 31 minutes ago, at 16:20 UTC
Wind 12 kt from the East
Temperature 27°C
Humidity 94%
Pressure 1011 hPa
Visibility: 16.1 km
Scattered clouds at a height of 4400 ft
Scattered clouds at a height of 5000 ft
Scattered clouds at a height of 6500 ft

METAR: PKWA 281620Z AUTO 10012KT 10SM SCT044 SCT050 SCT065 27/26 A2984 RMK AO2 T02710257

Time: 04:51 (16:51 UTC)

Forecast

The report was made 5 hours and 31 minutes ago, at 11:20 UTC
Forecast valid from 28 at 12 UTC to 29 at 12 UTC
Wind 14 kt from the East
Visibility: 10 km
Scattered clouds at a height of 1700 ft
Scattered clouds at a height of 3000 ft
Broken clouds at a height of 5000 ft

TAF: PKWA 281120Z 2812/2912 09014KT P6SM SCT017 SCT030 BKN050

Weather observations and forecasts of more than 4000 airports (METAR and TAF reports).

The available stations are represented by yellow and red dots on the map.

Hover mouse over dot to see the name of the station.

Then click to see weather observations and forecasts.

To change the map : click on the green buttons with a black cross to zoom in, on the green button with a dash to zoom out, or on the green arrows for adjacent maps.


METAR-TAF: